createdAt,value
2018-12-05T00:02:47.923Z,101994.83
2018-12-05T00:05:55.459Z,101998.27
2018-12-05T00:09:02.406Z,102001.63
2018-12-05T00:12:09.727Z,102005.86
2018-12-05T00:15:16.558Z,101996.09
2018-12-05T00:18:38.220Z,102002.47
2018-12-05T00:21:45.049Z,101996.55
2018-12-05T00:24:52.003Z,101999.47
2018-12-05T00:27:57.918Z,101994.86
2018-12-05T00:31:05.090Z,102000.35
2018-12-05T00:34:11.923Z,102003.31
2018-12-05T00:37:27.354Z,102002.42
2018-12-05T00:40:34.082Z,102007.90
2018-12-05T00:43:40.942Z,102006.64
2018-12-05T00:46:56.462Z,102015.07
2018-12-05T00:50:03.541Z,102001.98
2018-12-05T00:53:10.866Z,102002.84
2018-12-05T00:56:17.604Z,102005.80
2018-12-05T00:59:24.334Z,102010.86
2018-12-05T01:02:39.998Z,102014.66
2018-12-05T01:05:46.971Z,102016.36
2018-12-05T01:08:53.693Z,102023.53
2018-12-05T01:12:11.414Z,102022.69
2018-12-05T01:15:32.438Z,102033.67
2018-12-05T01:18:39.848Z,102035.78
2018-12-05T01:21:46.630Z,102039.09
2018-12-05T01:24:53.553Z,102042.89
2018-12-05T01:28:08.811Z,102047.55
2018-12-05T01:31:15.971Z,102053.46
2018-12-05T01:34:22.706Z,102042.89
2018-12-05T01:37:29.438Z,102055.95
2018-12-05T01:40:45.135Z,102052.98
2018-12-05T01:43:51.975Z,102053.84
2018-12-05T01:46:58.602Z,102056.75
2018-12-05T01:50:13.054Z,102056.70
2018-12-05T01:53:20.317Z,102059.24
2018-12-05T01:56:27.058Z,102060.51
2018-12-05T01:59:34.115Z,102062.55
2018-12-05T02:02:55.019Z,102062.53
2018-12-05T02:06:01.768Z,102060.87
2018-12-05T02:09:09.743Z,102061.36
2018-12-05T02:12:16.394Z,102055.03
2018-12-05T02:15:23.143Z,102054.94
2018-12-05T02:18:48.122Z,102064.65
2018-12-05T02:21:54.052Z,102055.33
2018-12-05T02:25:01.038Z,102054.94
2018-12-05T02:28:07.995Z,102051.53
2018-12-05T02:31:16.239Z,102041.41
2018-12-05T02:34:31.707Z,102048.10
2018-12-05T02:37:38.676Z,102051.97
2018-12-05T02:40:45.813Z,102047.31
2018-12-05T02:43:52.775Z,102054.06
2018-12-05T02:46:59.610Z,102057.88
2018-12-05T02:50:15.734Z,102055.75
2018-12-05T02:53:22.478Z,102059.13
2018-12-05T02:56:29.208Z,102049.88
2018-12-05T02:59:44.603Z,102054.96
2018-12-05T03:02:51.326Z,102057.03
2018-12-05T03:05:58.295Z,102056.48
2018-12-05T03:09:16.713Z,102049.31
2018-12-05T03:12:23.555Z,102054.70
2018-12-05T03:15:30.620Z,102056.84
2018-12-05T03:18:37.347Z,102052.18
2018-12-05T03:21:44.187Z,102049.66
2018-12-05T03:24:51.018Z,102053.83
2018-12-05T03:27:57.982Z,102055.56
2018-12-05T03:31:04.950Z,102051.23
2018-12-05T03:34:11.923Z,102056.41
2018-12-05T03:37:19.004Z,102057.99
2018-12-05T03:40:34.638Z,102058.36
2018-12-05T03:43:41.478Z,102060.44
2018-12-05T03:46:48.207Z,102073.52
2018-12-05T03:50:06.159Z,102066.27
2018-12-05T03:53:12.893Z,102076.84
2018-12-05T03:56:19.626Z,102073.80
2018-12-05T03:59:27.063Z,102081.48
2018-12-05T04:02:34.202Z,102079.79
2018-12-05T04:05:40.939Z,102077.66
2018-12-05T04:08:56.498Z,102081.03
2018-12-05T04:12:03.260Z,102071.27
2018-12-05T04:15:10.487Z,102074.21
2018-12-05T04:18:17.220Z,102075.07
2018-12-05T04:21:35.819Z,102075.42
2018-12-05T04:24:42.549Z,102075.75
2018-12-05T04:27:49.378Z,102072.03
2018-12-05T04:31:05.378Z,102074.93
2018-12-05T04:34:12.205Z,102074.04
2018-12-05T04:37:18.841Z,102073.20
2018-12-05T04:40:25.802Z,102070.57
2018-12-05T04:43:44.794Z,102075.19
2018-12-05T04:46:51.546Z,102070.13
2018-12-05T04:49:58.642Z,102064.20
2018-12-05T04:53:06.145Z,102064.59
2018-12-05T04:56:13.160Z,102069.19
2018-12-05T04:59:30.723Z,102068.73
2018-12-05T05:02:37.385Z,102082.22
2018-12-05T05:05:44.118Z,102083.52
2018-12-05T05:08:59.504Z,102089.05
2018-12-05T05:12:06.165Z,102096.94
2018-12-05T05:15:13.146Z,102091.47
2018-12-05T05:18:37.668Z,102097.77
2018-12-05T05:21:44.406Z,102094.66
2018-12-05T05:24:51.171Z,102099.39
2018-12-05T05:28:08.806Z,102101.86
2018-12-05T05:31:15.542Z,102106.05
2018-12-05T05:34:21.961Z,102098.33
2018-12-05T05:37:28.690Z,102106.40
2018-12-05T05:40:35.439Z,102112.64
2018-12-05T05:43:42.503Z,102116.50
2018-12-05T05:46:57.934Z,102115.58
2018-12-05T05:50:05.134Z,102112.22
2018-12-05T05:53:12.100Z,102112.67
2018-12-05T05:56:18.838Z,102106.24
2018-12-05T05:59:25.801Z,102110.09
2018-12-05T06:02:41.485Z,102109.98
2018-12-05T06:05:48.454Z,102116.36
2018-12-05T06:08:55.297Z,102120.98
2018-12-05T06:12:14.114Z,102120.49
2018-12-05T06:15:20.874Z,102116.61
2018-12-05T06:18:27.731Z,102115.74
2018-12-05T06:21:46.773Z,102117.42
2018-12-05T06:24:53.502Z,102116.16
2018-12-05T06:28:00.689Z,102112.30
2018-12-05T06:31:07.561Z,102105.44
2018-12-05T06:34:26.654Z,102104.58
2018-12-05T06:37:33.034Z,102101.77
2018-12-05T06:40:50.589Z,102101.31
2018-12-05T06:43:57.650Z,102102.09
2018-12-05T06:47:04.491Z,102105.48
2018-12-05T06:50:11.561Z,102105.73
2018-12-05T06:53:18.611Z,102110.45
2018-12-05T06:56:34.124Z,102118.95
2018-12-05T06:59:41.058Z,102122.63
2018-12-05T07:02:47.778Z,102125.07
2018-12-05T07:06:03.999Z,102128.03
2018-12-05T07:09:19.557Z,102131.37
2018-12-05T07:12:26.282Z,102133.90
2018-12-05T07:15:33.122Z,102132.22
2018-12-05T07:18:52.219Z,102140.55
2018-12-05T07:21:58.968Z,102137.11
2018-12-05T07:25:06.541Z,102140.86
2018-12-05T07:28:13.522Z,102132.04
2018-12-05T07:31:20.273Z,102140.03
2018-12-05T07:34:35.778Z,102130.59
2018-12-05T07:37:42.610Z,102129.45
2018-12-05T07:40:49.345Z,102130.16
2018-12-05T07:44:14.406Z,102134.09
2018-12-05T07:47:21.346Z,102127.63
2018-12-05T07:50:28.087Z,102130.12
2018-12-05T07:53:43.579Z,102133.09
2018-12-05T07:56:50.787Z,102131.37
2018-12-05T07:59:57.523Z,102133.84
2018-12-05T08:03:04.443Z,102136.30
2018-12-05T08:06:23.406Z,102138.58
2018-12-05T08:09:30.247Z,102134.31
2018-12-05T08:12:36.990Z,102143.85
2018-12-05T08:15:52.558Z,102139.16
2018-12-05T08:18:59.315Z,102150.97
2018-12-05T08:22:06.034Z,102152.69
2018-12-05T08:25:21.690Z,102156.50
2018-12-05T08:28:28.425Z,102160.38
2018-12-05T08:31:43.595Z,102162.05
2018-12-05T08:34:50.338Z,102161.64
2018-12-05T08:37:57.058Z,102153.72
2018-12-05T08:41:12.687Z,102158.04
2018-12-05T08:44:19.519Z,102153.41
2018-12-05T08:47:26.595Z,102157.23
2018-12-05T08:50:33.327Z,102158.11
2018-12-05T08:53:49.033Z,102164.55
2018-12-05T08:56:56.050Z,102167.58
2018-12-05T09:00:02.799Z,102161.72
2018-12-05T09:03:21.869Z,102164.36
2018-12-05T09:06:28.627Z,102166.50
2018-12-05T09:09:35.589Z,102167.77
2018-12-05T09:12:54.547Z,102171.98
2018-12-05T09:16:01.297Z,102171.73
2018-12-05T09:19:08.035Z,102163.26
2018-12-05T09:22:27.189Z,102163.36
2018-12-05T09:25:33.927Z,102162.53
2018-12-05T09:28:40.900Z,102164.20
2018-12-05T09:31:56.326Z,102153.81
2018-12-05T09:35:03.481Z,102161.86
2018-12-05T09:38:10.202Z,102159.34
2018-12-05T09:41:25.430Z,102159.41
2018-12-05T09:44:32.177Z,102157.90
2018-12-05T09:47:38.915Z,102162.94
2018-12-05T09:50:54.938Z,102154.50
2018-12-05T09:54:14.421Z,102159.22
2018-12-05T09:57:21.165Z,102155.97
2018-12-05T10:00:27.905Z,102154.25
2018-12-05T10:03:54.505Z,102155.53
2018-12-05T10:07:01.459Z,102154.72
2018-12-05T10:10:08.726Z,102150.14
2018-12-05T10:13:15.475Z,102143.50
2018-12-05T10:16:30.850Z,102141.39
2018-12-05T10:19:37.600Z,102139.41
2018-12-05T10:22:44.346Z,102138.19
2018-12-05T10:26:00.047Z,102134.95
2018-12-05T10:29:07.026Z,102136.38
2018-12-05T10:32:13.748Z,102126.39
2018-12-05T10:35:32.586Z,102115.94
2018-12-05T10:38:39.359Z,102122.34
2018-12-05T10:41:46.102Z,102110.95
2018-12-05T10:45:11.963Z,102113.95
2018-12-05T10:48:19.470Z,102109.73
2018-12-05T10:51:37.155Z,102106.42
2018-12-05T10:54:44.115Z,102105.60
2018-12-05T10:57:51.167Z,102111.11
2018-12-05T11:02:06.931Z,102104.78
2018-12-05T11:05:34.249Z,102101.48
2018-12-05T11:08:46.778Z,102097.28
2018-12-05T11:11:58.775Z,102091.80
2018-12-05T11:15:11.653Z,102093.14
2018-12-05T11:18:43.071Z,102088.92
2018-12-05T11:21:55.220Z,102093.16
2018-12-05T11:25:04.916Z,102087.30
2018-12-05T11:28:21.582Z,102097.03
2018-12-05T11:31:28.211Z,102084.80
2018-12-05T11:34:35.198Z,102082.33
2018-12-05T11:37:42.159Z,102074.73
2018-12-05T11:41:03.050Z,102072.20
2018-12-05T11:44:10.000Z,102070.16
2018-12-05T11:47:16.736Z,102063.83
2018-12-05T11:50:37.670Z,102057.08
2018-12-05T11:53:44.498Z,102058.77
2018-12-05T11:56:51.314Z,102057.13
2018-12-05T12:00:12.759Z,102060.11
2018-12-05T12:03:20.032Z,102063.91
2018-12-05T12:06:36.589Z,102058.01
2018-12-05T12:09:55.679Z,102056.78
2018-12-05T12:13:03.692Z,102056.80
2018-12-05T12:16:19.639Z,102047.92
2018-12-05T12:19:26.694Z,102043.70
2018-12-05T12:22:33.534Z,102043.75
2018-12-05T12:25:40.815Z,102039.95
2018-12-05T12:28:47.550Z,102037.00
2018-12-05T12:31:54.291Z,102031.54
2018-12-05T12:35:13.507Z,102024.34
2018-12-05T12:38:20.771Z,102021.81
2018-12-05T12:41:27.512Z,102016.75
2018-12-05T12:44:34.246Z,102012.98
2018-12-05T12:47:53.354Z,102012.14
2018-12-05T12:51:00.120Z,102010.02
2018-12-05T12:54:07.720Z,102006.64
2018-12-05T12:57:14.885Z,102010.02
2018-12-05T13:00:21.726Z,102012.56
2018-12-05T13:03:28.468Z,102005.41
2018-12-05T13:06:44.559Z,102001.60
2018-12-05T13:09:51.380Z,102000.76
2018-12-05T13:12:58.347Z,101994.41
2018-12-05T13:16:05.080Z,101992.30
2018-12-05T13:19:23.939Z,101989.76
2018-12-05T13:22:30.676Z,101974.95
2018-12-05T13:25:37.938Z,101977.06
2018-12-05T13:28:45.322Z,101978.79
2018-12-05T13:31:52.315Z,101971.59
2018-12-05T13:34:59.586Z,101972.02
2018-12-05T13:38:06.325Z,101963.98
2018-12-05T13:41:21.951Z,101960.59
2018-12-05T13:44:28.786Z,101953.83
2018-12-05T13:47:35.534Z,101949.59
2018-12-05T13:51:00.552Z,101938.62
2018-12-05T13:54:07.282Z,101931.39
2018-12-05T13:57:14.890Z,101917.46
2018-12-05T14:00:21.867Z,101920.84
2018-12-05T14:03:28.707Z,101912.80
2018-12-05T14:06:35.675Z,101912.80
2018-12-05T14:09:51.323Z,101911.53
2018-12-05T14:12:59.230Z,101918.30
2018-12-05T14:16:18.334Z,101918.30
2018-12-05T14:19:25.170Z,101918.28
2018-12-05T14:22:32.016Z,101910.66
2018-12-05T14:25:53.736Z,101903.05
2018-12-05T14:29:00.450Z,101889.52
2018-12-05T14:32:07.194Z,101886.12
2018-12-05T14:35:14.167Z,101885.70
2018-12-05T14:38:29.775Z,101876.39
2018-12-05T14:41:36.761Z,101872.59
2018-12-05T14:44:43.710Z,101870.48
2018-12-05T14:47:50.456Z,101867.52
2018-12-05T14:51:06.325Z,101868.77
2018-12-05T14:54:13.054Z,101871.30
2018-12-05T14:57:19.790Z,101873.42
2018-12-05T15:00:35.200Z,101874.27
2018-12-05T15:03:42.265Z,101871.28
2018-12-05T15:06:48.999Z,101865.78
2018-12-05T15:09:55.825Z,101855.61
2018-12-05T15:13:15.067Z,101859.43
2018-12-05T15:16:21.802Z,101855.62
2018-12-05T15:19:28.886Z,101860.70
2018-12-05T15:22:44.178Z,101850.97
2018-12-05T15:25:51.125Z,101850.94
2018-12-05T15:28:57.854Z,101838.69
2018-12-05T15:32:13.299Z,101834.41
2018-12-05T15:35:20.332Z,101832.28
2018-12-05T15:38:27.653Z,101833.52
2018-12-05T15:41:34.381Z,101828.45
2018-12-05T15:44:41.138Z,101829.67
2018-12-05T15:47:56.818Z,101821.61
2018-12-05T15:51:03.541Z,101819.54
2018-12-05T15:54:10.277Z,101816.54
2018-12-05T15:57:29.554Z,101816.95
2018-12-05T16:00:36.397Z,101811.05
2018-12-05T16:03:43.618Z,101797.06
2018-12-05T16:06:50.724Z,101797.48
2018-12-05T16:09:58.399Z,101787.77
2018-12-05T16:13:05.341Z,101781.40
2018-12-05T16:16:12.304Z,101775.52
2018-12-05T16:19:19.152Z,101767.03
2018-12-05T16:22:35.113Z,101763.23
2018-12-05T16:25:41.823Z,101753.10
2018-12-05T16:28:48.554Z,101746.34
2018-12-05T16:32:04.268Z,101736.20
2018-12-05T16:35:23.667Z,101731.14
2018-12-05T16:38:30.518Z,101730.72
2018-12-05T16:41:37.546Z,101720.16
2018-12-05T16:44:52.798Z,101718.44
2018-12-05T16:47:59.542Z,101707.45
2018-12-05T16:51:06.830Z,101701.55
2018-12-05T16:54:14.085Z,101698.59
2018-12-05T16:57:21.051Z,101697.75
2018-12-05T17:00:27.892Z,101698.59
2018-12-05T17:03:43.558Z,101691.41
2018-12-05T17:06:50.387Z,101682.52
2018-12-05T17:09:57.131Z,101687.58
2018-12-05T17:13:03.178Z,101685.08
2018-12-05T17:16:17.683Z,101685.92
2018-12-05T17:19:28.662Z,101674.10
2018-12-05T17:22:35.474Z,101670.30
2018-12-05T17:25:42.248Z,101670.30
2018-12-05T17:29:01.298Z,101665.66
2018-12-05T17:32:08.466Z,101663.55
2018-12-05T17:35:15.207Z,101657.64
2018-12-05T17:38:22.842Z,101654.72
2018-12-05T17:41:29.795Z,101648.80
2018-12-05T17:44:36.627Z,101649.24
2018-12-05T17:47:55.450Z,101643.76
2018-12-05T17:51:02.189Z,101633.63
2018-12-05T17:54:14.738Z,101634.89
2018-12-05T17:57:17.947Z,101628.12
2018-12-05T18:00:37.057Z,101625.17
2018-12-05T18:03:43.836Z,101620.53
2018-12-05T18:06:50.795Z,101616.73
2018-12-05T18:09:57.555Z,101612.52
2018-12-05T18:13:17.407Z,101603.65
2018-12-05T18:16:24.362Z,101592.24
2018-12-05T18:19:40.265Z,101593.92
2018-12-05T18:23:02.155Z,101588.42
2018-12-05T18:26:08.874Z,101595.59
2018-12-05T18:29:24.094Z,101589.70
2018-12-05T18:32:31.017Z,101578.73
2018-12-05T18:35:38.088Z,101573.64
2018-12-05T18:38:44.911Z,101569.00
2018-12-05T18:42:00.483Z,101571.97
2018-12-05T18:45:08.663Z,101572.79
2018-12-05T18:48:27.459Z,101567.73
2018-12-05T18:51:34.198Z,101561.41
2018-12-05T18:54:41.062Z,101555.05
2018-12-05T18:58:00.142Z,101556.75
2018-12-05T19:01:06.900Z,101546.61
2018-12-05T19:04:13.840Z,101541.14
2018-12-05T19:07:29.269Z,101537.33
2018-12-05T19:10:35.997Z,101532.27
2018-12-05T19:13:48.116Z,101525.09
2018-12-05T19:16:55.790Z,101519.56
2018-12-05T19:20:03.031Z,101517.05
2018-12-05T19:23:09.887Z,101519.17
2018-12-05T19:26:16.767Z,101509.03
2018-12-05T19:29:23.935Z,101500.55
2018-12-05T19:32:42.714Z,101491.27
2018-12-05T19:35:49.820Z,101484.92
2018-12-05T19:38:56.606Z,101469.70
2018-12-05T19:42:03.699Z,101474.35
2018-12-05T19:45:25.550Z,101468.83
2018-12-05T19:48:32.382Z,101465.02
2018-12-05T19:51:39.098Z,101459.53
2018-12-05T19:54:45.934Z,101451.48
2018-12-05T19:58:01.402Z,101456.97
2018-12-05T20:01:08.123Z,101446.83
2018-12-05T20:04:14.953Z,101446.80
2018-12-05T20:07:34.054Z,101441.73
2018-12-05T20:10:40.801Z,101446.38
2018-12-05T20:13:47.643Z,101443.85
2018-12-05T20:17:03.622Z,101437.94
2018-12-05T20:20:10.711Z,101437.52
2018-12-05T20:23:17.543Z,101431.58
2018-12-05T20:26:24.280Z,101425.23
2018-12-05T20:29:31.340Z,101422.28
2018-12-05T20:32:38.304Z,101415.94
2018-12-05T20:36:25.986Z,101416.36
2018-12-05T20:39:32.831Z,101407.46
2018-12-05T20:42:39.561Z,101402.40
2018-12-05T20:45:58.645Z,101389.72
2018-12-05T20:49:05.602Z,101385.91
2018-12-05T20:52:12.685Z,101384.19
2018-12-05T20:55:19.438Z,101389.70
2018-12-05T20:58:38.958Z,101384.61
2018-12-05T21:01:46.221Z,101372.37
2018-12-05T21:04:52.979Z,101376.16
2018-12-05T21:07:59.740Z,101376.56
2018-12-05T21:11:06.517Z,101371.08
2018-12-05T21:14:25.654Z,101362.22
2018-12-05T21:17:32.489Z,101360.49
2018-12-05T21:20:39.243Z,101351.63
2018-12-05T21:23:58.341Z,101347.39
2018-12-05T21:27:05.095Z,101342.74
2018-12-05T21:30:12.485Z,101343.98
2018-12-05T21:33:19.733Z,101337.19
2018-12-05T21:36:26.577Z,101339.72
2018-12-05T21:39:51.814Z,101340.13
2018-12-05T21:42:58.559Z,101336.33
2018-12-05T21:46:05.302Z,101340.53
2018-12-05T21:49:24.548Z,101340.98
2018-12-05T21:52:31.290Z,101335.05
2018-12-05T21:55:38.037Z,101327.42
2018-12-05T21:58:57.230Z,101332.07
2018-12-05T22:02:03.980Z,101332.05
2018-12-05T22:05:11.354Z,101327.41
2018-12-05T22:08:18.145Z,101337.55
2018-12-05T22:11:25.115Z,101337.59
2018-12-05T22:14:44.318Z,101340.95
2018-12-05T22:17:51.303Z,101334.14
2018-12-05T22:20:58.163Z,101329.95
2018-12-05T22:24:17.011Z,101329.90
2018-12-05T22:27:23.883Z,101327.77
2018-12-05T22:30:30.617Z,101324.39
2018-12-05T22:33:52.709Z,101316.80
2018-12-05T22:36:59.791Z,101315.94
2018-12-05T22:40:08.264Z,101307.91
2018-12-05T22:43:15.159Z,101302.41
2018-12-05T22:46:34.199Z,101298.98
2018-12-05T22:49:41.033Z,101287.96
2018-12-05T22:52:47.769Z,101291.78
2018-12-05T22:56:12.403Z,101279.90
2018-12-05T22:59:19.211Z,101284.14
2018-12-05T23:02:26.051Z,101277.79
2018-12-05T23:05:45.666Z,101270.59
2018-12-05T23:08:52.648Z,101278.63
2018-12-05T23:11:59.373Z,101263.41
2018-12-05T23:15:20.351Z,101255.77
2018-12-05T23:18:27.203Z,101243.52
2018-12-05T23:21:34.287Z,101232.48
2018-12-05T23:24:41.045Z,101226.09
2018-12-05T23:28:00.241Z,101216.37
2018-12-05T23:31:07.330Z,101208.30
2018-12-05T23:34:14.073Z,101204.11
2018-12-05T23:37:21.049Z,101188.85
2018-12-05T23:40:27.079Z,101185.48
2018-12-05T23:43:33.870Z,101184.66
2018-12-05T23:46:53.398Z,101176.17
2018-12-05T23:50:00.129Z,101169.82
2018-12-05T23:53:06.966Z,101160.95
2018-12-05T23:56:13.751Z,101154.20
2018-12-05T23:59:32.865Z,101149.92
